sensor_id;sensor_type;location;lat;lon;timestamp;pressure;altitude;pressure_sealevel;temperature;humidity
66681;BME280;53575;51.366;12.350;2023-02-28T00:02:16;101732.47;;;0.62;77.40
66681;BME280;53575;51.366;12.350;2023-02-28T00:04:43;101725.72;;;0.64;79.74
66681;BME280;53575;51.366;12.350;2023-02-28T00:07:08;101730.53;;;0.43;77.90
66681;BME280;53575;51.366;12.350;2023-02-28T00:09:34;101717.38;;;0.53;79.72
66681;BME280;53575;51.366;12.350;2023-02-28T00:11:59;101721.19;;;0.60;79.51
66681;BME280;53575;51.366;12.350;2023-02-28T00:14:25;101724.84;;;0.48;79.54
66681;BME280;53575;51.366;12.350;2023-02-28T00:16:50;101731.50;;;0.45;77.69
66681;BME280;53575;51.366;12.350;2023-02-28T00:19:16;101723.53;;;0.26;78.58
66681;BME280;53575;51.366;12.350;2023-02-28T00:21:41;101724.31;;;0.39;80.19
66681;BME280;53575;51.366;12.350;2023-02-28T00:24:08;101723.00;;;0.31;78.50
66681;BME280;53575;51.366;12.350;2023-02-28T00:26:33;101726.19;;;0.27;78.20
66681;BME280;53575;51.366;12.350;2023-02-28T00:28:59;101726.97;;;0.11;79.12
66681;BME280;53575;51.366;12.350;2023-02-28T00:31:25;101723.63;;;0.12;78.97
66681;BME280;53575;51.366;12.350;2023-02-28T00:33:50;101722.19;;;0.03;78.99
66681;BME280;53575;51.366;12.350;2023-02-28T00:36:16;101721.56;;;0.36;78.24
66681;BME280;53575;51.366;12.350;2023-02-28T00:38:42;101716.16;;;0.46;77.85
66681;BME280;53575;51.366;12.350;2023-02-28T00:41:08;101710.81;;;0.73;76.21
66681;BME280;53575;51.366;12.350;2023-02-28T00:43:34;101720.94;;;0.70;75.29
66681;BME280;53575;51.366;12.350;2023-02-28T00:46:01;101712.94;;;0.80;74.63
66681;BME280;53575;51.366;12.350;2023-02-28T00:48:26;101716.09;;;0.76;74.61
66681;BME280;53575;51.366;12.350;2023-02-28T00:50:52;101715.59;;;0.67;75.16
66681;BME280;53575;51.366;12.350;2023-02-28T00:53:17;101723.25;;;0.51;77.01
66681;BME280;53575;51.366;12.350;2023-02-28T00:55:43;101722.81;;;0.28;77.55
66681;BME280;53575;51.366;12.350;2023-02-28T00:58:08;101719.50;;;0.45;77.52
66681;BME280;53575;51.366;12.350;2023-02-28T01:00:33;101712.78;;;0.62;75.76
66681;BME280;53575;51.366;12.350;2023-02-28T01:02:59;101719.44;;;0.59;77.24
66681;BME280;53575;51.366;12.350;2023-02-28T01:05:24;101721.56;;;0.51;78.52
66681;BME280;53575;51.366;12.350;2023-02-28T01:07:49;101721.47;;;0.49;77.22
66681;BME280;53575;51.366;12.350;2023-02-28T01:10:15;101727.22;;;0.45;77.35
66681;BME280;53575;51.366;12.350;2023-02-28T01:12:41;101716.44;;;0.51;77.10
66681;BME280;53575;51.366;12.350;2023-02-28T01:15:06;101719.50;;;0.60;76.30
66681;BME280;53575;51.366;12.350;2023-02-28T01:17:32;101710.88;;;0.75;75.74
66681;BME280;53575;51.366;12.350;2023-02-28T01:19:57;101718.97;;;0.66;76.51
66681;BME280;53575;51.366;12.350;2023-02-28T01:22:23;101710.53;;;0.68;76.11
66681;BME280;53575;51.366;12.350;2023-02-28T01:24:48;101713.72;;;0.64;76.23
66681;BME280;53575;51.366;12.350;2023-02-28T01:27:14;101714.28;;;0.59;76.75
66681;BME280;53575;51.366;12.350;2023-02-28T01:29:39;101711.16;;;0.64;76.48
66681;BME280;53575;51.366;12.350;2023-02-28T01:32:04;101717.03;;;0.77;75.80
66681;BME280;53575;51.366;12.350;2023-02-28T01:34:30;101714.97;;;0.71;75.68
66681;BME280;53575;51.366;12.350;2023-02-28T01:36:55;101709.19;;;0.75;75.48
66681;BME280;53575;51.366;12.350;2023-02-28T01:39:24;101705.31;;;0.67;76.32
66681;BME280;53575;51.366;12.350;2023-02-28T01:41:49;101705.81;;;0.76;76.31
66681;BME280;53575;51.366;12.350;2023-02-28T01:47:18;101700.13;;;0.36;78.07
66681;BME280;53575;51.366;12.350;2023-02-28T01:49:43;101712.78;;;0.18;79.54
66681;BME280;53575;51.366;12.350;2023-02-28T01:52:10;101700.81;;;0.33;81.48
66681;BME280;53575;51.366;12.350;2023-02-28T01:54:40;101702.25;;;0.43;79.40
66681;BME280;53575;51.366;12.350;2023-02-28T01:57:09;101702.75;;;0.37;79.46
66681;BME280;53575;51.366;12.350;2023-02-28T01:59:39;101701.13;;;0.23;79.56
66681;BME280;53575;51.366;12.350;2023-02-28T02:02:11;101691.59;;;0.22;79.71
66681;BME280;53575;51.366;12.350;2023-02-28T02:05:07;101698.88;;;0.44;77.76
66681;BME280;53575;51.366;12.350;2023-02-28T02:07:35;101689.81;;;0.51;78.37
66681;BME280;53575;51.366;12.350;2023-02-28T02:15:19;101695.69;;;0.33;81.59
66681;BME280;53575;51.366;12.350;2023-02-28T02:17:52;101691.16;;;0.29;81.11
66681;BME280;53575;51.366;12.350;2023-02-28T02:31:51;101669.53;;;0.40;79.51
66681;BME280;53575;51.366;12.350;2023-02-28T02:34:31;101677.16;;;0.39;79.46
66681;BME280;53575;51.366;12.350;2023-02-28T02:37:03;101679.56;;;0.36;79.12
66681;BME280;53575;51.366;12.350;2023-02-28T02:39:53;101671.47;;;0.44;79.02
66681;BME280;53575;51.366;12.350;2023-02-28T02:42:44;101672.69;;;0.51;78.90
66681;BME280;53575;51.366;12.350;2023-02-28T02:47:47;101672.91;;;0.39;79.33
66681;BME280;53575;51.366;12.350;2023-02-28T02:50:22;101679.75;;;0.24;80.42
66681;BME280;53575;51.366;12.350;2023-02-28T02:52:53;101684.34;;;0.30;79.95
66681;BME280;53575;51.366;12.350;2023-02-28T02:55:22;101686.03;;;0.29;79.78
66681;BME280;53575;51.366;12.350;2023-02-28T02:57:52;101693.53;;;0.11;81.87
66681;BME280;53575;51.366;12.350;2023-02-28T03:00:26;101690.91;;;0.10;80.81
66681;BME280;53575;51.366;12.350;2023-02-28T03:02:54;101695.94;;;-0.07;81.93
66681;BME280;53575;51.366;12.350;2023-02-28T03:05:26;101696.09;;;-0.33;83.06
66681;BME280;53575;51.366;12.350;2023-02-28T03:07:52;101689.44;;;-0.30;82.09
66681;BME280;53575;51.366;12.350;2023-02-28T03:10:28;101686.00;;;-0.15;80.99
66681;BME280;53575;51.366;12.350;2023-02-28T03:13:04;101686.88;;;-0.30;81.50
66681;BME280;53575;51.366;12.350;2023-02-28T03:15:43;101697.44;;;-0.25;81.69
66681;BME280;53575;51.366;12.350;2023-02-28T03:18:29;101693.13;;;-0.39;82.22
66681;BME280;53575;51.366;12.350;2023-02-28T03:21:08;101693.56;;;-0.46;82.16
66681;BME280;53575;51.366;12.350;2023-02-28T03:23:50;101696.75;;;-0.51;82.81
66681;BME280;53575;51.366;12.350;2023-02-28T03:26:22;101703.69;;;-0.63;82.88
66681;BME280;53575;51.366;12.350;2023-02-28T03:29:15;101697.56;;;-0.93;84.79
66681;BME280;53575;51.366;12.350;2023-02-28T03:32:21;101706.66;;;-0.98;85.43
66681;BME280;53575;51.366;12.350;2023-02-28T03:35:09;101699.31;;;-0.79;85.41
66681;BME280;53575;51.366;12.350;2023-02-28T03:37:35;101702.56;;;-0.81;85.50
66681;BME280;53575;51.366;12.350;2023-02-28T03:40:08;101702.53;;;-0.68;84.48
66681;BME280;53575;51.366;12.350;2023-02-28T03:42:40;101700.25;;;-0.63;83.44
66681;BME280;53575;51.366;12.350;2023-02-28T03:45:33;101705.94;;;-0.54;82.95
66681;BME280;53575;51.366;12.350;2023-02-28T03:48:07;101696.66;;;-0.52;82.87
66681;BME280;53575;51.366;12.350;2023-02-28T03:50:38;101705.94;;;-0.54;83.21
66681;BME280;53575;51.366;12.350;2023-02-28T03:53:12;101696.75;;;-0.51;82.56
66681;BME280;53575;51.366;12.350;2023-02-28T03:55:42;101698.66;;;-0.61;83.30
66681;BME280;53575;51.366;12.350;2023-02-28T03:58:24;101704.22;;;-0.68;83.30
66681;BME280;53575;51.366;12.350;2023-02-28T04:00:59;101704.78;;;-0.87;84.03
66681;BME280;53575;51.366;12.350;2023-02-28T04:03:37;101700.72;;;-0.97;85.20
66681;BME280;53575;51.366;12.350;2023-02-28T04:06:04;101702.13;;;-1.15;86.80
66681;BME280;53575;51.366;12.350;2023-02-28T04:08:31;101706.53;;;-1.00;86.40
66681;BME280;53575;51.366;12.350;2023-02-28T04:11:04;101702.75;;;-0.78;84.79
66681;BME280;53575;51.366;12.350;2023-02-28T04:13:31;101706.97;;;-0.65;84.60
66681;BME280;53575;51.366;12.350;2023-02-28T04:15:57;101706.28;;;-0.63;83.82
66681;BME280;53575;51.366;12.350;2023-02-28T04:18:22;101708.41;;;-0.56;83.52
66681;BME280;53575;51.366;12.350;2023-02-28T04:20:48;101708.81;;;-0.50;83.24
66681;BME280;53575;51.366;12.350;2023-02-28T04:23:13;101710.63;;;-0.34;82.77
66681;BME280;53575;51.366;12.350;2023-02-28T04:25:38;101712.53;;;-0.44;83.31
66681;BME280;53575;51.366;12.350;2023-02-28T04:28:06;101710.00;;;-0.30;82.52
66681;BME280;53575;51.366;12.350;2023-02-28T04:30:31;101718.03;;;-0.38;83.07
66681;BME280;53575;51.366;12.350;2023-02-28T04:32:59;101720.69;;;-0.37;83.31
66681;BME280;53575;51.366;12.350;2023-02-28T04:35:25;101716.22;;;-0.26;82.78
66681;BME280;53575;51.366;12.350;2023-02-28T04:37:50;101712.63;;;-0.43;83.49
66681;BME280;53575;51.366;12.350;2023-02-28T04:40:15;101722.53;;;-0.49;83.71
66681;BME280;53575;51.366;12.350;2023-02-28T04:42:41;101721.50;;;-0.38;84.01
66681;BME280;53575;51.366;12.350;2023-02-28T04:45:07;101720.69;;;-0.37;84.00
66681;BME280;53575;51.366;12.350;2023-02-28T04:47:35;101717.13;;;-0.39;84.67
66681;BME280;53575;51.366;12.350;2023-02-28T04:50:01;101721.19;;;-0.42;84.01
66681;BME280;53575;51.366;12.350;2023-02-28T04:52:27;101717.75;;;-0.71;83.49
66681;BME280;53575;51.366;12.350;2023-02-28T04:54:53;101722.47;;;-0.64;84.09
66681;BME280;53575;51.366;12.350;2023-02-28T04:57:18;101724.03;;;-0.53;83.12
66681;BME280;53575;51.366;12.350;2023-02-28T04:59:43;101721.72;;;-0.76;84.60
66681;BME280;53575;51.366;12.350;2023-02-28T05:02:09;101718.06;;;-0.80;84.00
66681;BME280;53575;51.366;12.350;2023-02-28T05:04:35;101723.22;;;-0.80;84.68
66681;BME280;53575;51.366;12.350;2023-02-28T05:07:01;101718.91;;;-0.66;82.94
66681;BME280;53575;51.366;12.350;2023-02-28T05:09:27;101718.63;;;-0.57;82.06
66681;BME280;53575;51.366;12.350;2023-02-28T05:11:53;101726.41;;;-0.56;81.77
66681;BME280;53575;51.366;12.350;2023-02-28T05:14:18;101727.06;;;-0.45;81.03
66681;BME280;53575;51.366;12.350;2023-02-28T05:16:44;101726.78;;;-0.35;80.26
66681;BME280;53575;51.366;12.350;2023-02-28T05:19:09;101729.47;;;-0.33;80.37
66681;BME280;53575;51.366;12.350;2023-02-28T05:21:36;101735.06;;;-0.54;81.01
66681;BME280;53575;51.366;12.350;2023-02-28T05:24:05;101731.13;;;-0.62;80.74
66681;BME280;53575;51.366;12.350;2023-02-28T05:26:34;101729.25;;;-0.51;80.82
66681;BME280;53575;51.366;12.350;2023-02-28T05:29:00;101729.78;;;-0.70;82.00
66681;BME280;53575;51.366;12.350;2023-02-28T05:31:25;101730.50;;;-0.72;82.49
66681;BME280;53575;51.366;12.350;2023-02-28T05:33:51;101733.34;;;-0.68;80.83
66681;BME280;53575;51.366;12.350;2023-02-28T05:36:17;101727.50;;;-0.65;80.69
66681;BME280;53575;51.366;12.350;2023-02-28T05:38:42;101737.13;;;-0.76;81.66
66681;BME280;53575;51.366;12.350;2023-02-28T05:41:09;101738.69;;;-0.78;81.00
66681;BME280;53575;51.366;12.350;2023-02-28T05:43:35;101734.38;;;-0.79;81.28
66681;BME280;53575;51.366;12.350;2023-02-28T05:46:09;101736.81;;;-0.67;80.73
66681;BME280;53575;51.366;12.350;2023-02-28T05:48:36;101738.28;;;-0.71;80.24
66681;BME280;53575;51.366;12.350;2023-02-28T05:51:03;101743.41;;;-0.71;80.77
66681;BME280;53575;51.366;12.350;2023-02-28T05:53:30;101745.00;;;-0.73;80.33
66681;BME280;53575;51.366;12.350;2023-02-28T05:55:56;101749.66;;;-0.81;80.30
66681;BME280;53575;51.366;12.350;2023-02-28T05:58:21;101751.84;;;-0.87;80.69
66681;BME280;53575;51.366;12.350;2023-02-28T06:00:47;101755.56;;;-0.82;80.94
66681;BME280;53575;51.366;12.350;2023-02-28T06:03:13;101756.06;;;-0.74;79.92
66681;BME280;53575;51.366;12.350;2023-02-28T06:05:38;101763.47;;;-0.79;80.40
66681;BME280;53575;51.366;12.350;2023-02-28T06:08:04;101756.69;;;-0.91;80.04
66681;BME280;53575;51.366;12.350;2023-02-28T06:10:30;101756.78;;;-1.03;80.92
66681;BME280;53575;51.366;12.350;2023-02-28T06:12:59;101764.19;;;-0.94;81.30
66681;BME280;53575;51.366;12.350;2023-02-28T06:15:25;101763.78;;;-0.87;80.79
66681;BME280;53575;51.366;12.350;2023-02-28T06:17:50;101768.22;;;-0.85;80.14
66681;BME280;53575;51.366;12.350;2023-02-28T06:20:17;101773.75;;;-0.92;80.86
66681;BME280;53575;51.366;12.350;2023-02-28T06:22:42;101779.88;;;-1.03;81.51
66681;BME280;53575;51.366;12.350;2023-02-28T06:25:09;101774.25;;;-0.98;81.09
66681;BME280;53575;51.366;12.350;2023-02-28T06:27:34;101776.50;;;-0.89;80.68
66681;BME280;53575;51.366;12.350;2023-02-28T06:30:00;101781.84;;;-0.86;80.02
66681;BME280;53575;51.366;12.350;2023-02-28T06:32:25;101781.75;;;-0.87;80.22
66681;BME280;53575;51.366;12.350;2023-02-28T06:34:51;101793.66;;;-0.88;80.66
66681;BME280;53575;51.366;12.350;2023-02-28T06:37:17;101797.44;;;-0.96;83.17
66681;BME280;53575;51.366;12.350;2023-02-28T06:39:43;101791.53;;;-1.08;82.44
66681;BME280;53575;51.366;12.350;2023-02-28T06:42:09;101795.78;;;-1.22;83.09
66681;BME280;53575;51.366;12.350;2023-02-28T06:44:34;101802.38;;;-1.26;83.41
66681;BME280;53575;51.366;12.350;2023-02-28T06:47:02;101804.81;;;-1.27;83.17
66681;BME280;53575;51.366;12.350;2023-02-28T06:49:29;101803.25;;;-1.12;82.88
66681;BME280;53575;51.366;12.350;2023-02-28T06:51:55;101802.97;;;-1.16;82.64
66681;BME280;53575;51.366;12.350;2023-02-28T06:54:20;101806.72;;;-1.11;82.71
66681;BME280;53575;51.366;12.350;2023-02-28T06:56:45;101805.44;;;-1.05;81.85
66681;BME280;53575;51.366;12.350;2023-02-28T06:59:12;101806.22;;;-1.06;81.93
66681;BME280;53575;51.366;12.350;2023-02-28T07:01:37;101805.63;;;-1.02;82.20
66681;BME280;53575;51.366;12.350;2023-02-28T07:04:04;101812.53;;;-1.01;81.88
66681;BME280;53575;51.366;12.350;2023-02-28T07:06:31;101814.81;;;-1.05;81.98
66681;BME280;53575;51.366;12.350;2023-02-28T07:08:56;101810.28;;;-1.09;82.70
66681;BME280;53575;51.366;12.350;2023-02-28T07:11:23;101815.38;;;-0.96;82.30
66681;BME280;53575;51.366;12.350;2023-02-28T07:13:51;101823.59;;;-0.88;81.60
66681;BME280;53575;51.366;12.350;2023-02-28T07:16:17;101821.13;;;-0.87;82.25
66681;BME280;53575;51.366;12.350;2023-02-28T07:18:42;101825.06;;;-0.79;81.00
66681;BME280;53575;51.366;12.350;2023-02-28T07:21:09;101818.25;;;-0.78;80.10
66681;BME280;53575;51.366;12.350;2023-02-28T07:23:35;101828.94;;;-0.72;80.91
66681;BME280;53575;51.366;12.350;2023-02-28T07:26:03;101821.41;;;-0.56;79.78
66681;BME280;53575;51.366;12.350;2023-02-28T07:28:29;101820.19;;;-0.47;78.15
66681;BME280;53575;51.366;12.350;2023-02-28T07:30:54;101828.56;;;-0.37;78.81
66681;BME280;53575;51.366;12.350;2023-02-28T07:33:20;101827.75;;;-0.36;78.07
66681;BME280;53575;51.366;12.350;2023-02-28T07:35:45;101823.03;;;-0.43;78.10
66681;BME280;53575;51.366;12.350;2023-02-28T07:38:11;101824.41;;;-0.35;77.74
66681;BME280;53575;51.366;12.350;2023-02-28T07:40:39;101819.19;;;-0.36;78.04
66681;BME280;53575;51.366;12.350;2023-02-28T07:43:04;101827.22;;;-0.17;76.08
66681;BME280;53575;51.366;12.350;2023-02-28T07:45:30;101827.31;;;-0.15;75.87
66681;BME280;53575;51.366;12.350;2023-02-28T07:47:56;101829.66;;;-0.05;74.95
66681;BME280;53575;51.366;12.350;2023-02-28T07:50:22;101827.00;;;-0.07;74.52
66681;BME280;53575;51.366;12.350;2023-02-28T07:52:48;101828.56;;;-0.09;74.31
66681;BME280;53575;51.366;12.350;2023-02-28T07:55:14;101829.22;;;0.02;73.72
66681;BME280;53575;51.366;12.350;2023-02-28T07:57:40;101821.94;;;-0.05;74.15
66681;BME280;53575;51.366;12.350;2023-02-28T08:00:08;101830.50;;;0.09;73.46
66681;BME280;53575;51.366;12.350;2023-02-28T08:02:35;101831.22;;;0.21;72.53
66681;BME280;53575;51.366;12.350;2023-02-28T08:05:00;101841.09;;;0.28;71.35
66681;BME280;53575;51.366;12.350;2023-02-28T08:07:27;101831.00;;;0.31;71.83
66681;BME280;53575;51.366;12.350;2023-02-28T08:09:52;101835.94;;;0.28;72.61
66681;BME280;53575;51.366;12.350;2023-02-28T08:12:18;101828.75;;;0.37;71.11
66681;BME280;53575;51.366;12.350;2023-02-28T08:14:43;101823.00;;;0.41;69.13
66681;BME280;53575;51.366;12.350;2023-02-28T08:17:09;101832.25;;;0.53;69.06
66681;BME280;53575;51.366;12.350;2023-02-28T08:19:35;101828.72;;;0.65;68.01
66681;BME280;53575;51.366;12.350;2023-02-28T08:22:00;101824.63;;;0.69;67.57
66681;BME280;53575;51.366;12.350;2023-02-28T08:24:26;101822.84;;;0.68;67.90
66681;BME280;53575;51.366;12.350;2023-02-28T08:26:51;101818.50;;;0.67;69.26
66681;BME280;53575;51.366;12.350;2023-02-28T08:29:16;101818.56;;;0.83;65.67
66681;BME280;53575;51.366;12.350;2023-02-28T08:31:42;101824.97;;;0.90;64.93
66681;BME280;53575;51.366;12.350;2023-02-28T08:34:13;101814.75;;;0.91;63.08
66681;BME280;53575;51.366;12.350;2023-02-28T08:36:39;101817.94;;;1.02;63.43
66681;BME280;53575;51.366;12.350;2023-02-28T08:39:05;101824.81;;;1.18;61.03
66681;BME280;53575;51.366;12.350;2023-02-28T08:41:31;101818.97;;;1.20;60.31
66681;BME280;53575;51.366;12.350;2023-02-28T08:43:56;101826.63;;;1.19;61.11
66681;BME280;53575;51.366;12.350;2023-02-28T08:46:22;101816.13;;;1.31;60.04
66681;BME280;53575;51.366;12.350;2023-02-28T08:48:51;101817.06;;;1.33;58.95
66681;BME280;53575;51.366;12.350;2023-02-28T08:51:18;101819.91;;;1.37;58.77
66681;BME280;53575;51.366;12.350;2023-02-28T08:53:44;101822.81;;;1.43;57.34
66681;BME280;53575;51.366;12.350;2023-02-28T08:56:12;101823.16;;;1.50;58.44
66681;BME280;53575;51.366;12.350;2023-02-28T08:58:38;101825.81;;;1.51;57.98
66681;BME280;53575;51.366;12.350;2023-02-28T09:01:15;101828.41;;;1.67;56.81
66681;BME280;53575;51.366;12.350;2023-02-28T09:03:41;101833.66;;;1.69;56.70
66681;BME280;53575;51.366;12.350;2023-02-28T09:06:08;101831.09;;;1.69;57.49
66681;BME280;53575;51.366;12.350;2023-02-28T09:08:33;101833.66;;;1.69;58.14
66681;BME280;53575;51.366;12.350;2023-02-28T09:10:59;101827.22;;;1.77;58.25
66681;BME280;53575;51.366;12.350;2023-02-28T09:13:26;101824.81;;;1.80;59.11
66681;BME280;53575;51.366;12.350;2023-02-28T09:15:52;101832.22;;;1.90;57.21
66681;BME280;53575;51.366;12.350;2023-02-28T09:18:18;101823.94;;;1.96;55.26
66681;BME280;53575;51.366;12.350;2023-02-28T09:20:44;101832.72;;;2.00;54.80
66681;BME280;53575;51.366;12.350;2023-02-28T09:23:12;101826.44;;;2.11;55.75
66681;BME280;53575;51.366;12.350;2023-02-28T09:25:40;101826.03;;;2.19;56.08
66681;BME280;53575;51.366;12.350;2023-02-28T09:28:09;101834.34;;;2.30;54.62
66681;BME280;53575;51.366;12.350;2023-02-28T09:30:35;101829.06;;;2.45;53.47
66681;BME280;53575;51.366;12.350;2023-02-28T09:33:00;101835.56;;;2.55;52.66
66681;BME280;53575;51.366;12.350;2023-02-28T09:35:26;101832.16;;;2.72;52.13
66681;BME280;53575;51.366;12.350;2023-02-28T09:37:52;101831.78;;;2.82;53.33
66681;BME280;53575;51.366;12.350;2023-02-28T09:40:22;101830.19;;;3.20;51.76
66681;BME280;53575;51.366;12.350;2023-02-28T09:42:51;101843.19;;;3.22;50.44
66681;BME280;53575;51.366;12.350;2023-02-28T09:45:33;101843.91;;;3.01;51.36
66681;BME280;53575;51.366;12.350;2023-02-28T09:48:03;101832.91;;;2.87;51.76
66681;BME280;53575;51.366;12.350;2023-02-28T09:50:41;101838.69;;;3.00;52.14
66681;BME280;53575;51.366;12.350;2023-02-28T09:53:34;101835.34;;;3.20;49.84
66681;BME280;53575;51.366;12.350;2023-02-28T09:56:30;101829.75;;;3.29;50.24
66681;BME280;53575;51.366;12.350;2023-02-28T10:04:54;101835.06;;;3.14;50.87
66681;BME280;53575;51.366;12.350;2023-02-28T10:12:46;101822.06;;;3.48;49.27
66681;BME280;53575;51.366;12.350;2023-02-28T10:15:16;101823.47;;;3.41;49.44
66681;BME280;53575;51.366;12.350;2023-02-28T10:17:45;101827.97;;;3.46;48.60
66681;BME280;53575;51.366;12.350;2023-02-28T10:20:19;101829.59;;;3.44;49.14
66681;BME280;53575;51.366;12.350;2023-02-28T10:23:00;101831.09;;;3.58;50.96
66681;BME280;53575;51.366;12.350;2023-02-28T10:25:34;101825.78;;;3.73;49.40
66681;BME280;53575;51.366;12.350;2023-02-28T10:28:13;101817.28;;;3.75;49.36
66681;BME280;53575;51.366;12.350;2023-02-28T10:30:40;101815.38;;;3.71;49.14
66681;BME280;53575;51.366;12.350;2023-02-28T10:33:33;101817.66;;;3.65;49.08
66681;BME280;53575;51.366;12.350;2023-02-28T10:35:58;101814.84;;;3.78;48.39
66681;BME280;53575;51.366;12.350;2023-02-28T10:38:32;101814.94;;;3.62;47.94
66681;BME280;53575;51.366;12.350;2023-02-28T10:41:09;101814.59;;;3.74;48.38
66681;BME280;53575;51.366;12.350;2023-02-28T10:43:37;101809.19;;;3.87;47.18
66681;BME280;53575;51.366;12.350;2023-02-28T10:46:18;101810.47;;;3.97;47.17
66681;BME280;53575;51.366;12.350;2023-02-28T10:49:03;101805.88;;;3.89;47.12
66681;BME280;53575;51.366;12.350;2023-02-28T10:51:36;101804.69;;;3.83;46.35
66681;BME280;53575;51.366;12.350;2023-02-28T10:54:02;101802.28;;;3.68;48.73
66681;BME280;53575;51.366;12.350;2023-02-28T10:56:28;101798.34;;;3.76;47.50
66681;BME280;53575;51.366;12.350;2023-02-28T11:01:45;101801.09;;;3.79;47.46
66681;BME280;53575;51.366;12.350;2023-02-28T11:04:40;101791.13;;;3.69;48.05
66681;BME280;53575;51.366;12.350;2023-02-28T11:07:20;101785.44;;;3.76;48.12
66681;BME280;53575;51.366;12.350;2023-02-28T11:09:51;101785.78;;;3.84;49.10
66681;BME280;53575;51.366;12.350;2023-02-28T11:12:30;101786.53;;;4.01;49.59
66681;BME280;53575;51.366;12.350;2023-02-28T11:14:58;101788.97;;;4.17;49.15
66681;BME280;53575;51.366;12.350;2023-02-28T11:17:27;101785.59;;;4.20;47.33
66681;BME280;53575;51.366;12.350;2023-02-28T11:19:56;101786.53;;;4.20;47.94
66681;BME280;53575;51.366;12.350;2023-02-28T11:22:25;101792.28;;;4.14;47.34
66681;BME280;53575;51.366;12.350;2023-02-28T11:24:55;101777.56;;;4.33;47.14
66681;BME280;53575;51.366;12.350;2023-02-28T11:29:57;101781.00;;;4.53;46.99
66681;BME280;53575;51.366;12.350;2023-02-28T11:32:24;101780.63;;;4.44;46.91
66681;BME280;53575;51.366;12.350;2023-02-28T11:35:04;101789.59;;;4.52;46.73
66681;BME280;53575;51.366;12.350;2023-02-28T11:37:39;101783.72;;;4.56;45.48
66681;BME280;53575;51.366;12.350;2023-02-28T11:40:21;101780.63;;;4.44;46.64
66681;BME280;53575;51.366;12.350;2023-02-28T12:06:03;101760.47;;;5.22;46.29
66681;BME280;53575;51.366;12.350;2023-02-28T12:12:07;101760.13;;;5.12;47.07
66681;BME280;53575;51.366;12.350;2023-02-28T12:17:43;101754.38;;;4.99;46.78
66681;BME280;53575;51.366;12.350;2023-02-28T12:22:56;101752.31;;;4.90;47.71
66681;BME280;53575;51.366;12.350;2023-02-28T12:25:41;101744.69;;;5.16;46.59
66681;BME280;53575;51.366;12.350;2023-02-28T12:28:12;101743.78;;;5.15;46.46
66681;BME280;53575;51.366;12.350;2023-02-28T12:30:47;101743.09;;;5.19;46.39
66681;BME280;53575;51.366;12.350;2023-02-28T12:33:16;101738.97;;;5.24;46.92
66681;BME280;53575;51.366;12.350;2023-02-28T12:35:55;101742.28;;;5.20;45.44
66681;BME280;53575;51.366;12.350;2023-02-28T12:38:25;101738.84;;;5.21;45.75
66681;BME280;53575;51.366;12.350;2023-02-28T12:41:05;101734.50;;;5.43;46.36
66681;BME280;53575;51.366;12.350;2023-02-28T12:43:44;101733.19;;;5.31;45.97
66681;BME280;53575;51.366;12.350;2023-02-28T12:46:19;101722.94;;;5.34;45.62
66681;BME280;53575;51.366;12.350;2023-02-28T12:48:50;101714.56;;;5.42;46.43
66681;BME280;53575;51.366;12.350;2023-02-28T12:51:18;101720.28;;;5.33;46.00
66681;BME280;53575;51.366;12.350;2023-02-28T12:57:08;101712.44;;;4.86;46.59
66681;BME280;53575;51.366;12.350;2023-02-28T12:59:48;101720.09;;;4.83;47.45
66681;BME280;53575;51.366;12.350;2023-02-28T13:02:25;101710.22;;;4.73;47.98
66681;BME280;53575;51.366;12.350;2023-02-28T13:05:02;101704.28;;;4.98;48.75
66681;BME280;53575;51.366;12.350;2023-02-28T13:10:22;101702.13;;;5.33;46.38
66681;BME280;53575;51.366;12.350;2023-02-28T13:12:53;101701.78;;;5.46;46.28
66681;BME280;53575;51.366;12.350;2023-02-28T13:15:23;101703.72;;;5.52;45.59
66681;BME280;53575;51.366;12.350;2023-02-28T13:17:58;101695.16;;;5.30;46.21
66681;BME280;53575;51.366;12.350;2023-02-28T13:20:34;101699.34;;;5.27;46.35
66681;BME280;53575;51.366;12.350;2023-02-28T13:23:00;101695.72;;;5.46;46.88
66681;BME280;53575;51.366;12.350;2023-02-28T13:27:58;101692.00;;;5.63;46.15
66681;BME280;53575;51.366;12.350;2023-02-28T13:35:44;101697.84;;;5.33;46.33
66681;BME280;53575;51.366;12.350;2023-02-28T13:38:22;101697.47;;;5.23;45.45
66681;BME280;53575;51.366;12.350;2023-02-28T13:40:48;101691.22;;;5.42;45.37
66681;BME280;53575;51.366;12.350;2023-02-28T13:43:16;101689.16;;;5.55;45.47
66681;BME280;53575;51.366;12.350;2023-02-28T13:46:06;101695.47;;;5.63;45.24
66681;BME280;53575;51.366;12.350;2023-02-28T13:48:33;101690.47;;;5.68;45.28
66681;BME280;53575;51.366;12.350;2023-02-28T13:50:58;101686.59;;;5.81;45.04
66681;BME280;53575;51.366;12.350;2023-02-28T13:53:42;101685.47;;;5.97;44.85
66681;BME280;53575;51.366;12.350;2023-02-28T13:56:45;101677.31;;;6.12;44.74
66681;BME280;53575;51.366;12.350;2023-02-28T14:02:09;101676.00;;;6.24;45.13
66681;BME280;53575;51.366;12.350;2023-02-28T14:07:08;101668.69;;;6.13;43.92
66681;BME280;53575;51.366;12.350;2023-02-28T14:09:46;101663.09;;;6.00;44.37
66681;BME280;53575;51.366;12.350;2023-02-28T14:18:13;101664.63;;;6.21;44.62
66681;BME280;53575;51.366;12.350;2023-02-28T14:20:40;101655.97;;;6.20;44.69
66681;BME280;53575;51.366;12.350;2023-02-28T14:31:43;101666.84;;;5.60;45.06
66681;BME280;53575;51.366;12.350;2023-02-28T14:36:52;101660.66;;;5.81;45.42
66681;BME280;53575;51.366;12.350;2023-02-28T14:39:22;101667.31;;;5.73;46.11
66681;BME280;53575;51.366;12.350;2023-02-28T14:41:48;101664.00;;;5.77;45.26
66681;BME280;53575;51.366;12.350;2023-02-28T14:46:43;101670.69;;;5.46;45.84
66681;BME280;53575;51.366;12.350;2023-02-28T14:49:32;101663.56;;;5.18;46.72